sensor_id;sensor_type;location;lat;lon;timestamp;temperature;humidity
15158;DHT22;7679;48.796;9.056;2022-07-29T00:00:14;27.60;48.30
15158;DHT22;7679;48.796;9.056;2022-07-29T00:10:38;27.60;48.30
15158;DHT22;7679;48.796;9.056;2022-07-29T00:21:05;27.60;48.40
15158;DHT22;7679;48.796;9.056;2022-07-29T00:31:29;27.60;48.40
15158;DHT22;7679;48.796;9.056;2022-07-29T00:41:55;27.60;48.50
15158;DHT22;7679;48.796;9.056;2022-07-29T00:52:20;27.60;48.50
15158;DHT22;7679;48.796;9.056;2022-07-29T01:02:48;27.60;48.50
15158;DHT22;7679;48.796;9.056;2022-07-29T01:13:13;27.60;48.50
15158;DHT22;7679;48.796;9.056;2022-07-29T01:23:56;27.60;48.60
15158;DHT22;7679;48.796;9.056;2022-07-29T01:34:29;27.60;49.20
15158;DHT22;7679;48.796;9.056;2022-07-29T01:44:57;27.60;48.60
15158;DHT22;7679;48.796;9.056;2022-07-29T01:55:28;27.60;48.70
15158;DHT22;7679;48.796;9.056;2022-07-29T02:05:53;27.60;48.70
15158;DHT22;7679;48.796;9.056;2022-07-29T02:16:24;27.60;48.70
15158;DHT22;7679;48.796;9.056;2022-07-29T02:26:52;27.60;48.70
15158;DHT22;7679;48.796;9.056;2022-07-29T02:37:20;27.60;48.70
15158;DHT22;7679;48.796;9.056;2022-07-29T02:47:48;27.60;48.70
15158;DHT22;7679;48.796;9.056;2022-07-29T02:58:23;27.60;48.80
15158;DHT22;7679;48.796;9.056;2022-07-29T03:08:50;27.60;48.80
15158;DHT22;7679;48.796;9.056;2022-07-29T03:19:18;27.60;48.80
15158;DHT22;7679;48.796;9.056;2022-07-29T03:29:45;27.60;48.80
15158;DHT22;7679;48.796;9.056;2022-07-29T03:40:16;27.60;48.90
15158;DHT22;7679;48.796;9.056;2022-07-29T03:50:46;27.60;48.90
15158;DHT22;7679;48.796;9.056;2022-07-29T04:01:15;27.60;48.90
15158;DHT22;7679;48.796;9.056;2022-07-29T04:11:43;27.60;48.90
15158;DHT22;7679;48.796;9.056;2022-07-29T04:22:10;27.60;49.00
15158;DHT22;7679;48.796;9.056;2022-07-29T04:32:34;27.60;48.90
15158;DHT22;7679;48.796;9.056;2022-07-29T04:43:01;27.60;49.00
15158;DHT22;7679;48.796;9.056;2022-07-29T04:53:25;27.50;48.90
15158;DHT22;7679;48.796;9.056;2022-07-29T05:03:52;27.50;49.10
15158;DHT22;7679;48.796;9.056;2022-07-29T05:14:16;27.40;49.50
15158;DHT22;7679;48.796;9.056;2022-07-29T05:24:43;27.40;49.80
15158;DHT22;7679;48.796;9.056;2022-07-29T05:35:08;27.30;49.90
15158;DHT22;7679;48.796;9.056;2022-07-29T05:45:35;27.40;49.80
15158;DHT22;7679;48.796;9.056;2022-07-29T05:56:03;27.40;49.70
15158;DHT22;7679;48.796;9.056;2022-07-29T06:06:32;27.40;49.70
15158;DHT22;7679;48.796;9.056;2022-07-29T06:16:57;27.40;49.50
15158;DHT22;7679;48.796;9.056;2022-07-29T06:27:23;27.40;49.50
15158;DHT22;7679;48.796;9.056;2022-07-29T06:37:47;27.40;49.50
15158;DHT22;7679;48.796;9.056;2022-07-29T06:48:14;27.40;49.50
15158;DHT22;7679;48.796;9.056;2022-07-29T06:58:38;27.40;49.50
15158;DHT22;7679;48.796;9.056;2022-07-29T07:09:05;27.40;49.50
15158;DHT22;7679;48.796;9.056;2022-07-29T07:19:29;27.40;49.40
15158;DHT22;7679;48.796;9.056;2022-07-29T07:29:55;27.40;49.40
15158;DHT22;7679;48.796;9.056;2022-07-29T07:40:19;27.40;49.50
15158;DHT22;7679;48.796;9.056;2022-07-29T07:50:46;27.40;49.70
15158;DHT22;7679;48.796;9.056;2022-07-29T08:01:11;27.40;50.10
15158;DHT22;7679;48.796;9.056;2022-07-29T08:11:40;27.40;50.20
15158;DHT22;7679;48.796;9.056;2022-07-29T08:22:04;27.40;50.30
15158;DHT22;7679;48.796;9.056;2022-07-29T08:32:30;27.40;50.30
15158;DHT22;7679;48.796;9.056;2022-07-29T08:42:54;27.40;50.30
15158;DHT22;7679;48.796;9.056;2022-07-29T08:53:26;27.40;50.20
15158;DHT22;7679;48.796;9.056;2022-07-29T09:03:50;27.40;50.30
15158;DHT22;7679;48.796;9.056;2022-07-29T09:14:21;27.40;50.30
15158;DHT22;7679;48.796;9.056;2022-07-29T09:24:46;27.40;50.40
15158;DHT22;7679;48.796;9.056;2022-07-29T09:35:18;27.40;50.30
15158;DHT22;7679;48.796;9.056;2022-07-29T09:45:42;27.40;50.40
15158;DHT22;7679;48.796;9.056;2022-07-29T09:56:10;27.50;50.40
15158;DHT22;7679;48.796;9.056;2022-07-29T10:06:34;27.40;50.30
15158;DHT22;7679;48.796;9.056;2022-07-29T10:17:02;27.40;50.30
15158;DHT22;7679;48.796;9.056;2022-07-29T10:27:27;27.40;50.40
15158;DHT22;7679;48.796;9.056;2022-07-29T10:38:21;27.40;50.40
15158;DHT22;7679;48.796;9.056;2022-07-29T10:49:06;27.40;50.40
15158;DHT22;7679;48.796;9.056;2022-07-29T10:59:49;27.40;50.40
15158;DHT22;7679;48.796;9.056;2022-07-29T11:10:23;27.40;50.40
15158;DHT22;7679;48.796;9.056;2022-07-29T11:20:51;27.40;50.30
15158;DHT22;7679;48.796;9.056;2022-07-29T11:31:16;27.40;50.30
15158;DHT22;7679;48.796;9.056;2022-07-29T11:41:43;27.40;50.30
15158;DHT22;7679;48.796;9.056;2022-07-29T11:52:13;27.40;50.30
15158;DHT22;7679;48.796;9.056;2022-07-29T12:02:53;27.40;50.40
15158;DHT22;7679;48.796;9.056;2022-07-29T12:13:19;27.40;50.40
15158;DHT22;7679;48.796;9.056;2022-07-29T12:23:55;27.40;50.40
15158;DHT22;7679;48.796;9.056;2022-07-29T12:34:20;27.40;50.30
15158;DHT22;7679;48.796;9.056;2022-07-29T12:45:03;27.40;50.30
15158;DHT22;7679;48.796;9.056;2022-07-29T13:14:38;27.40;50.60
15158;DHT22;7679;48.796;9.056;2022-07-29T13:25:03;27.40;50.50
15158;DHT22;7679;48.796;9.056;2022-07-29T13:35:30;27.40;50.50
15158;DHT22;7679;48.796;9.056;2022-07-29T13:45:54;27.40;50.50
15158;DHT22;7679;48.796;9.056;2022-07-29T13:56:21;27.40;50.50
15158;DHT22;7679;48.796;9.056;2022-07-29T14:06:45;27.40;50.50
15158;DHT22;7679;48.796;9.056;2022-07-29T14:17:12;27.40;50.50
15158;DHT22;7679;48.796;9.056;2022-07-29T14:27:36;27.40;50.50
15158;DHT22;7679;48.796;9.056;2022-07-29T14:38:03;27.40;50.50
15158;DHT22;7679;48.796;9.056;2022-07-29T14:48:27;27.40;50.40
15158;DHT22;7679;48.796;9.056;2022-07-29T14:58:54;27.40;50.40
15158;DHT22;7679;48.796;9.056;2022-07-29T15:09:18;27.40;50.60
15158;DHT22;7679;48.796;9.056;2022-07-29T15:19:44;27.40;50.70
15158;DHT22;7679;48.796;9.056;2022-07-29T15:30:10;27.40;50.70
15158;DHT22;7679;48.796;9.056;2022-07-29T15:40:43;27.40;50.70
15158;DHT22;7679;48.796;9.056;2022-07-29T15:51:07;27.40;50.70
15158;DHT22;7679;48.796;9.056;2022-07-29T16:01:34;27.40;50.70
15158;DHT22;7679;48.796;9.056;2022-07-29T16:11:58;27.40;50.70
15158;DHT22;7679;48.796;9.056;2022-07-29T16:22:24;27.40;50.80
15158;DHT22;7679;48.796;9.056;2022-07-29T16:32:48;27.30;50.80
15158;DHT22;7679;48.796;9.056;2022-07-29T16:43:15;27.30;50.80
15158;DHT22;7679;48.796;9.056;2022-07-29T16:53:39;27.30;50.80
15158;DHT22;7679;48.796;9.056;2022-07-29T17:04:07;27.30;50.80
15158;DHT22;7679;48.796;9.056;2022-07-29T17:14:34;27.30;50.80
15158;DHT22;7679;48.796;9.056;2022-07-29T17:25:01;27.30;50.80
15158;DHT22;7679;48.796;9.056;2022-07-29T17:35:25;27.30;50.80
15158;DHT22;7679;48.796;9.056;2022-07-29T17:46:03;27.30;50.80
15158;DHT22;7679;48.796;9.056;2022-07-29T17:56:28;27.30;50.80
15158;DHT22;7679;48.796;9.056;2022-07-29T18:06:55;27.30;50.80
15158;DHT22;7679;48.796;9.056;2022-07-29T18:17:18;27.30;50.80
15158;DHT22;7679;48.796;9.056;2022-07-29T18:27:45;27.30;50.80
15158;DHT22;7679;48.796;9.056;2022-07-29T18:38:09;27.30;50.80
15158;DHT22;7679;48.796;9.056;2022-07-29T18:48:36;27.30;50.80
15158;DHT22;7679;48.796;9.056;2022-07-29T18:59:00;27.30;50.70
15158;DHT22;7679;48.796;9.056;2022-07-29T19:09:26;27.30;50.80
15158;DHT22;7679;48.796;9.056;2022-07-29T19:19:50;27.30;50.80
15158;DHT22;7679;48.796;9.056;2022-07-29T19:30:17;27.30;50.80
15158;DHT22;7679;48.796;9.056;2022-07-29T19:40:41;27.30;50.90
15158;DHT22;7679;48.796;9.056;2022-07-29T19:51:08;27.30;50.90
15158;DHT22;7679;48.796;9.056;2022-07-29T20:01:32;27.30;50.90
15158;DHT22;7679;48.796;9.056;2022-07-29T20:12:00;27.30;50.90
15158;DHT22;7679;48.796;9.056;2022-07-29T20:22:24;27.30;50.90
15158;DHT22;7679;48.796;9.056;2022-07-29T20:32:51;27.20;50.80
15158;DHT22;7679;48.796;9.056;2022-07-29T20:43:15;27.20;50.80
15158;DHT22;7679;48.796;9.056;2022-07-29T20:53:42;27.20;50.80
15158;DHT22;7679;48.796;9.056;2022-07-29T21:04:07;27.20;50.80
15158;DHT22;7679;48.796;9.056;2022-07-29T21:14:34;27.30;50.90
15158;DHT22;7679;48.796;9.056;2022-07-29T21:25:19;27.20;50.80
15158;DHT22;7679;48.796;9.056;2022-07-29T21:35:46;27.20;50.80
15158;DHT22;7679;48.796;9.056;2022-07-29T21:46:10;27.20;50.80
15158;DHT22;7679;48.796;9.056;2022-07-29T21:56:39;27.20;50.80
15158;DHT22;7679;48.796;9.056;2022-07-29T22:07:03;27.20;50.80
15158;DHT22;7679;48.796;9.056;2022-07-29T22:17:29;27.20;50.90
15158;DHT22;7679;48.796;9.056;2022-07-29T22:27:54;27.20;50.80
15158;DHT22;7679;48.796;9.056;2022-07-29T22:38:23;27.20;50.90
15158;DHT22;7679;48.796;9.056;2022-07-29T22:48:47;27.20;50.80
15158;DHT22;7679;48.796;9.056;2022-07-29T22:59:13;27.20;50.90
15158;DHT22;7679;48.796;9.056;2022-07-29T23:09:38;27.20;50.90
15158;DHT22;7679;48.796;9.056;2022-07-29T23:20:10;27.20;50.90
15158;DHT22;7679;48.796;9.056;2022-07-29T23:30:34;27.20;50.90
15158;DHT22;7679;48.796;9.056;2022-07-29T23:41:01;27.20;50.90
15158;DHT22;7679;48.796;9.056;2022-07-29T23:51:29;27.20;50.90
